Aihui, China
Current Conditions -  °F | °C
As of 12:30 AM on Friday 31 Oct 2014 (Local Time) from UHBB Reporting Station
Clear Clear  
Wind Chill: 14°   Ceiling: Unl
Heat Index: 14°   Visibility: 6mi
Dew Point: 10°   Wind: 2mph
Humidity: 86%   Direction: 50°NE
Pressure: 30.36"   Gusts: NA
Location:  50.25°N, 127.45°E
Report Text: UHBB 301630Z 05001MPS CAVOK M10/M12 Q1028 NOSIG RMK QFE753/100436090060
Loading
Personal Weather Stations






























Interactive Weather Map
Tropical Storm Tracking
New forecast layout! Learn more

10-Day Weather Forecast

Advertisements
Track Severe Weather on mobile